Time;durP1;ratioP1;P1;durP2;ratioP2;P2;SDS_P1;SDS_P2;PMS_P1;PMS_P2;Temp;Humidity;BMP_temperature;BMP_pressure;BME280_temperature;BME280_humidity;BME280_pressure;Samples;Min_cycle;Max_cycle;Signal;HPM_P1;HPM_P2
2023/08/28 00:00:46;;;;;;;0.00;0.00;;;14.50;99.90;;;;;;4917573;28;20048;-70
2023/08/28 00:03:11;;;;;;;0.00;0.00;;;14.50;99.90;;;;;;4917570;28;20060;-70
2023/08/28 00:05:37;;;;;;;0.00;0.00;;;14.50;99.90;;;;;;4940259;28;20121;-70
2023/08/28 00:08:04;;;;;;;0.10;0.10;;;14.50;99.90;;;;;;4950611;28;20042;-70
2023/08/28 00:10:30;;;;;;;0.00;0.00;;;14.50;99.90;;;;;;4923864;28;20074;-70
2023/08/28 00:12:55;;;;;;;0.00;0.00;;;14.60;99.90;;;;;;4909575;28;20496;-70
2023/08/28 00:15:21;;;;;;;0.00;0.00;;;14.60;99.90;;;;;;4933054;28;20072;-70
2023/08/28 00:17:47;;;;;;;0.00;0.00;;;14.60;99.90;;;;;;4944772;28;20041;-70
2023/08/28 00:20:12;;;;;;;0.55;0.52;;;14.60;99.90;;;;;;4925304;28;20048;-70
2023/08/28 00:22:38;;;;;;;0.00;0.00;;;14.60;99.90;;;;;;4941641;28;20610;-70
2023/08/28 00:25:07;;;;;;;0.25;0.25;;;14.60;99.90;;;;;;4953744;28;20522;-70
2023/08/28 00:27:33;;;;;;;0.03;0.03;;;14.60;99.90;;;;;;4950419;28;20060;-70
2023/08/28 00:29:58;;;;;;;0.00;0.00;;;14.60;99.90;;;;;;4913626;28;20071;-70
2023/08/28 00:32:28;;;;;;;0.00;0.00;;;14.60;99.90;;;;;;4922518;28;20088;-70
2023/08/28 00:34:54;;;;;;;0.00;0.00;;;14.60;99.90;;;;;;4931772;28;20059;-70
2023/08/28 00:37:20;;;;;;;0.00;0.00;;;14.60;99.90;;;;;;4929025;28;20052;-70
2023/08/28 00:39:45;;;;;;;0.10;0.10;;;14.60;99.90;;;;;;4933891;28;20047;-70
2023/08/28 00:42:12;;;;;;;0.00;0.00;;;14.50;99.90;;;;;;4928115;28;20046;-70
2023/08/28 00:44:38;;;;;;;0.10;0.10;;;14.60;99.90;;;;;;4919966;28;20036;-70
2023/08/28 00:47:05;;;;;;;0.00;0.00;;;14.50;99.90;;;;;;4936093;28;20138;-70
2023/08/28 00:49:32;;;;;;;0.00;0.00;;;14.50;99.90;;;;;;4913053;28;20044;-70
2023/08/28 00:51:58;;;;;;;0.00;0.00;;;14.40;99.90;;;;;;4937593;28;20041;-70
2023/08/28 00:54:24;;;;;;;0.03;0.03;;;14.30;99.90;;;;;;4937151;28;20040;-70
2023/08/28 00:56:51;;;;;;;0.00;0.00;;;14.30;99.90;;;;;;4904593;28;20381;-70
2023/08/28 00:59:17;;;;;;;0.00;0.00;;;14.10;99.90;;;;;;4929969;28;20052;-70
2023/08/28 01:01:44;;;;;;;0.00;0.00;;;14.10;99.90;;;;;;4930900;28;20443;-71
2023/08/28 01:04:09;;;;;;;0.00;0.00;;;14.10;99.90;;;;;;4910992;28;20075;-71
2023/08/28 01:06:55;;;;;;;0.00;0.00;;;14.00;99.90;;;;;;4942333;28;20123;-71
2023/08/28 01:09:40;;;;;;;0.00;0.00;;;14.00;99.90;;;;;;4955169;28;20099;-69
2023/08/28 01:12:16;;;;;;;0.00;0.00;;;13.90;99.90;;;;;;4910225;28;20044;-69
2023/08/28 01:15:01;;;;;;;0.00;0.00;;;13.80;99.90;;;;;;4920997;28;20042;-69
2023/08/28 01:17:29;;;;;;;0.08;0.08;;;13.80;99.90;;;;;;4965992;28;20046;-69
2023/08/28 01:19:55;;;;;;;0.00;0.00;;;13.70;99.90;;;;;;4908108;28;20124;-68
2023/08/28 01:22:30;;;;;;;0.80;0.75;;;13.70;99.90;;;;;;4927611;28;20047;-69
2023/08/28 01:25:05;;;;;;;0.00;0.00;;;13.60;99.90;;;;;;4907221;28;20048;-69
2023/08/28 01:27:31;;;;;;;0.00;0.00;;;13.60;99.90;;;;;;4923822;28;20049;-69
2023/08/28 01:30:10;;;;;;;0.10;0.10;;;13.50;99.90;;;;;;4930498;28;20054;-68
2023/08/28 01:32:40;;;;;;;0.00;0.00;;;13.50;99.90;;;;;;4917097;28;20056;-69
2023/08/28 01:35:14;;;;;;;0.10;0.10;;;13.50;99.90;;;;;;4945289;28;20050;-68
2023/08/28 01:37:43;;;;;;;;;;;13.60;99.90;;;;;;4907645;28;20044;-69
2023/08/28 01:40:12;;;;;;;2.90;0.32;;;13.50;99.90;;;;;;4929637;28;19921;-68
2023/08/28 01:42:39;;;;;;;0.63;0.22;;;13.50;99.90;;;;;;4933866;28;20044;-68
2023/08/28 01:45:05;;;;;;;0.10;0.10;;;13.40;99.90;;;;;;4939273;28;20052;-68
2023/08/28 01:47:31;;;;;;;0.05;0.05;;;13.40;99.90;;;;;;4926606;28;20121;-68
2023/08/28 01:49:58;;;;;;;0.00;0.00;;;13.40;99.90;;;;;;4922441;28;20575;-69
2023/08/28 01:52:24;;;;;;;0.10;0.10;;;13.40;99.90;;;;;;4918070;28;20055;-68
2023/08/28 01:54:49;;;;;;;0.00;0.00;;;13.40;99.90;;;;;;4910560;28;20111;-68
2023/08/28 01:57:15;;;;;;;1.23;1.02;;;13.40;99.90;;;;;;4954892;28;20051;-69
2023/08/28 01:59:41;;;;;;;0.20;0.20;;;13.40;99.90;;;;;;4910366;28;20040;-68
2023/08/28 02:02:06;;;;;;;0.10;0.10;;;13.40;99.90;;;;;;4955253;28;20042;-68
2023/08/28 02:04:32;;;;;;;0.10;0.10;;;13.40;99.90;;;;;;4947892;28;20049;-69
2023/08/28 02:06:57;;;;;;;0.15;0.10;;;13.40;99.90;;;;;;4938303;28;20092;-69
2023/08/28 02:09:23;;;;;;;0.10;0.10;;;13.40;99.90;;;;;;4937398;28;20503;-69
2023/08/28 02:11:49;;;;;;;0.00;0.00;;;13.40;99.90;;;;;;4939790;28;20030;-69
2023/08/28 02:14:15;;;;;;;0.40;0.40;;;13.40;99.90;;;;;;4930141;28;20488;-69
2023/08/28 02:16:41;;;;;;;0.10;0.10;;;13.40;99.90;;;;;;4926896;28;20660;-70
2023/08/28 02:19:06;;;;;;;0.00;0.00;;;13.40;99.90;;;;;;4961374;28;20575;-70
2023/08/28 02:21:32;;;;;;;3.20;1.98;;;13.40;99.90;;;;;;4947322;28;20151;-70
2023/08/28 02:23:58;;;;;;;0.13;0.13;;;13.40;99.90;;;;;;4937204;28;20046;-70
2023/08/28 02:26:24;;;;;;;0.10;0.10;;;13.40;99.90;;;;;;4904262;28;20055;-70
2023/08/28 02:28:49;;;;;;;0.00;0.00;;;13.40;99.90;;;;;;4947910;28;20064;-70
2023/08/28 02:31:15;;;;;;;0.00;0.00;;;13.40;99.90;;;;;;4936459;28;20036;-70
2023/08/28 02:33:41;;;;;;;0.05;0.05;;;13.40;99.90;;;;;;4957263;28;20060;-70
2023/08/28 02:36:07;;;;;;;0.10;0.10;;;13.50;99.90;;;;;;4948763;28;20088;-70
2023/08/28 02:38:33;;;;;;;0.10;0.10;;;13.50;99.90;;;;;;4913409;28;20056;-71
2023/08/28 02:41:07;;;;;;;0.00;0.00;;;13.50;99.90;;;;;;4920470;28;20067;-70
2023/08/28 02:43:33;;;;;;;0.00;0.00;;;13.50;99.90;;;;;;4908830;28;20044;-70
2023/08/28 02:46:00;;;;;;;0.10;0.10;;;13.50;99.90;;;;;;4923245;28;20044;-70
2023/08/28 02:48:26;;;;;;;0.00;0.00;;;13.50;99.90;;;;;;4901170;28;20056;-70
2023/08/28 02:50:51;;;;;;;0.00;0.00;;;13.50;99.90;;;;;;4946245;28;20049;-70
2023/08/28 02:53:17;;;;;;;0.00;0.00;;;13.60;99.90;;;;;;4918706;28;20047;-70
2023/08/28 02:56:09;;;;;;;0.00;0.00;;;13.60;99.90;;;;;;4932570;28;20040;-70
2023/08/28 02:58:35;;;;;;;0.00;0.00;;;13.50;99.90;;;;;;4918896;28;20127;-70
2023/08/28 03:01:01;;;;;;;0.00;0.00;;;13.50;99.90;;;;;;4943970;28;20132;-70
2023/08/28 03:03:26;;;;;;;0.10;0.10;;;13.40;99.90;;;;;;4914885;28;20130;-71
2023/08/28 03:05:52;;;;;;;0.00;0.00;;;13.40;99.90;;;;;;4930616;28;20048;-70
2023/08/28 03:08:17;;;;;;;0.10;0.10;;;13.40;99.90;;;;;;4945513;28;20044;-70
2023/08/28 03:10:43;;;;;;;0.00;0.00;;;13.30;99.90;;;;;;4917744;28;20404;-70
2023/08/28 03:13:08;;;;;;;0.10;0.10;;;13.30;99.90;;;;;;4930163;28;20115;-70
2023/08/28 03:15:34;;;;;;;0.00;0.00;;;13.20;99.90;;;;;;4928979;28;20079;-70
2023/08/28 03:18:00;;;;;;;1.33;1.23;;;13.30;99.90;;;;;;4923538;28;20030;-70
2023/08/28 03:20:25;;;;;;;0.00;0.00;;;13.30;99.90;;;;;;4917489;28;20039;-70
2023/08/28 03:22:51;;;;;;;0.20;0.20;;;13.30;99.90;;;;;;4958451;28;20070;-70
2023/08/28 03:25:17;;;;;;;0.10;0.10;;;13.30;99.90;;;;;;4947318;28;20578;-70
2023/08/28 03:27:42;;;;;;;0.10;0.10;;;13.30;99.90;;;;;;4932566;28;20056;-70
2023/08/28 03:30:09;;;;;;;0.00;0.00;;;13.30;99.90;;;;;;4917237;28;20510;-70
2023/08/28 03:32:34;;;;;;;0.17;0.17;;;13.40;99.90;;;;;;4928428;28;20127;-71
2023/08/28 03:35:00;;;;;;;0.00;0.00;;;13.30;99.90;;;;;;4939160;28;20141;-70
2023/08/28 03:37:25;;;;;;;0.20;0.20;;;13.30;99.90;;;;;;4925714;28;20503;-70
2023/08/28 03:39:51;;;;;;;0.10;0.10;;;13.30;99.90;;;;;;4923331;28;20036;-70
2023/08/28 03:42:17;;;;;;;0.10;0.10;;;13.40;99.90;;;;;;4911974;28;20052;-70
2023/08/28 03:44:42;;;;;;;0.63;0.63;;;13.40;99.90;;;;;;4907449;28;20535;-70
2023/08/28 03:47:08;;;;;;;0.00;0.00;;;13.40;99.90;;;;;;4949930;28;20086;-70
2023/08/28 03:49:33;;;;;;;0.13;0.13;;;13.40;99.90;;;;;;4950062;28;20048;-70
2023/08/28 03:51:59;;;;;;;0.10;0.10;;;13.40;99.90;;;;;;4910930;28;20374;-70
2023/08/28 03:54:27;;;;;;;0.00;0.00;;;13.30;99.90;;;;;;4940186;28;20078;-70
2023/08/28 03:56:53;;;;;;;0.10;0.10;;;13.30;99.90;;;;;;4942444;28;20507;-70
2023/08/28 03:59:19;;;;;;;0.00;0.00;;;13.20;99.90;;;;;;4933526;28;20460;-70
2023/08/28 04:01:44;;;;;;;0.32;0.32;;;13.20;99.90;;;;;;4932343;28;20044;-70
2023/08/28 04:04:10;;;;;;;0.00;0.00;;;13.20;99.90;;;;;;4920838;28;20059;-70
2023/08/28 04:06:36;;;;;;;0.00;0.00;;;13.20;99.90;;;;;;4957102;28;20449;-70
2023/08/28 04:09:02;;;;;;;0.10;0.10;;;13.20;99.90;;;;;;4940577;28;20488;-70
2023/08/28 04:11:28;;;;;;;0.00;0.00;;;13.20;99.90;;;;;;4922270;28;20036;-70
2023/08/28 04:13:53;;;;;;;0.20;0.20;;;13.20;99.90;;;;;;4947654;28;20121;-70
2023/08/28 04:16:19;;;;;;;0.08;0.08;;;13.30;99.90;;;;;;4931331;28;20045;-70
2023/08/28 04:18:45;;;;;;;0.00;0.00;;;13.30;99.90;;;;;;4943294;28;20044;-70
2023/08/28 04:21:10;;;;;;;0.00;0.00;;;13.40;99.90;;;;;;4921096;28;20090;-70
2023/08/28 04:23:36;;;;;;;0.13;0.13;;;13.40;99.90;;;;;;4931812;28;20163;-70
2023/08/28 04:26:01;;;;;;;0.00;0.00;;;13.40;99.90;;;;;;4915334;28;20083;-70
2023/08/28 04:28:27;;;;;;;0.00;0.00;;;13.40;99.90;;;;;;4926126;28;20546;-70
2023/08/28 04:30:53;;;;;;;0.00;0.00;;;13.40;99.90;;;;;;4955769;28;20041;-70
2023/08/28 04:33:19;;;;;;;0.03;0.03;;;13.40;99.90;;;;;;4912308;28;20292;-70
2023/08/28 04:35:45;;;;;;;0.00;0.00;;;13.30;99.90;;;;;;4925043;28;20052;-69
2023/08/28 04:38:10;;;;;;;0.08;0.08;;;13.30;99.90;;;;;;4938181;28;20131;-70
2023/08/28 04:40:36;;;;;;;0.00;0.00;;;13.20;99.90;;;;;;4914221;28;20480;-71
2023/08/28 04:43:02;;;;;;;1.10;1.10;;;13.20;99.90;;;;;;4932092;28;20111;-70
2023/08/28 04:45:27;;;;;;;0.00;0.00;;;13.20;99.90;;;;;;4918399;28;20063;-70
2023/08/28 04:47:53;;;;;;;0.00;0.00;;;13.10;99.90;;;;;;4912191;28;20040;-70
2023/08/28 04:50:18;;;;;;;0.10;0.10;;;13.10;99.90;;;;;;4936091;28;20064;-70
2023/08/28 04:52:44;;;;;;;0.38;0.38;;;13.10;99.90;;;;;;4943669;28;20098;-70
2023/08/28 04:55:09;;;;;;;0.00;0.00;;;13.00;99.90;;;;;;4916537;28;20518;-70
2023/08/28 04:57:35;;;;;;;0.10;0.10;;;13.00;99.90;;;;;;4930707;28;20134;-70
2023/08/28 05:00:01;;;;;;;0.00;0.00;;;13.00;99.90;;;;;;4934786;28;20042;-70
2023/08/28 05:02:27;;;;;;;0.00;0.00;;;13.00;99.90;;;;;;4946060;28;20044;-70
2023/08/28 05:04:52;;;;;;;0.10;0.10;;;13.00;99.90;;;;;;4910214;28;20033;-70
2023/08/28 05:07:18;;;;;;;0.25;0.25;;;13.10;99.90;;;;;;4960802;28;20116;-70
2023/08/28 05:09:43;;;;;;;0.00;0.00;;;13.10;99.90;;;;;;4929363;28;20097;-70
2023/08/28 05:12:09;;;;;;;0.10;0.10;;;13.10;99.90;;;;;;4940708;28;20371;-70
2023/08/28 05:14:35;;;;;;;0.10;0.10;;;13.10;99.90;;;;;;4967666;28;20478;-70
2023/08/28 05:17:00;;;;;;;0.30;0.30;;;13.10;99.90;;;;;;4976970;28;20048;-70
2023/08/28 05:19:26;;;;;;;0.00;0.00;;;13.10;99.90;;;;;;4904671;28;20106;-70
2023/08/28 05:21:52;;;;;;;0.00;0.00;;;13.00;99.90;;;;;;4952586;28;20627;-70
2023/08/28 05:24:17;;;;;;;0.20;0.20;;;13.10;99.90;;;;;;4927058;28;20052;-69
2023/08/28 05:26:43;;;;;;;0.20;0.20;;;13.10;99.90;;;;;;4922043;28;20132;-70
2023/08/28 05:29:08;;;;;;;0.10;0.10;;;13.10;99.90;;;;;;4920995;28;20163;-70
2023/08/28 05:31:34;;;;;;;0.08;0.08;;;13.20;99.90;;;;;;4908221;28;20404;-70
2023/08/28 05:33:59;;;;;;;0.10;0.10;;;13.20;99.90;;;;;;4928610;28;20046;-70
2023/08/28 05:36:25;;;;;;;0.08;0.08;;;13.40;99.90;;;;;;4952339;28;20050;-70
2023/08/28 05:38:51;;;;;;;0.20;0.20;;;13.40;99.90;;;;;;4904565;28;20386;-70
2023/08/28 05:41:16;;;;;;;0.03;0.03;;;13.50;99.90;;;;;;4917263;28;20059;-70
2023/08/28 05:43:42;;;;;;;0.00;0.00;;;13.50;99.90;;;;;;4900922;28;20047;-70
2023/08/28 05:46:07;;;;;;;0.10;0.10;;;13.50;99.90;;;;;;4935225;28;20037;-70
2023/08/28 05:48:33;;;;;;;0.10;0.10;;;13.60;99.90;;;;;;4952327;28;20056;-70
2023/08/28 05:50:58;;;;;;;0.13;0.13;;;13.60;99.90;;;;;;4950143;28;20048;-70
2023/08/28 05:53:24;;;;;;;0.00;0.00;;;13.70;99.90;;;;;;4942256;28;20050;-70
2023/08/28 05:55:50;;;;;;;0.10;0.10;;;13.70;99.90;;;;;;4929415;28;20439;-70
2023/08/28 05:58:15;;;;;;;0.00;0.00;;;13.80;99.90;;;;;;4959761;28;20044;-70
2023/08/28 06:00:42;;;;;;;0.17;0.17;;;13.90;99.90;;;;;;4941043;28;20036;-70
2023/08/28 06:03:07;;;;;;;0.10;0.10;;;13.90;99.90;;;;;;4932844;28;20047;-70
2023/08/28 06:05:34;;;;;;;0.00;0.00;;;13.90;99.90;;;;;;4957009;28;20065;-70
2023/08/28 06:07:59;;;;;;;0.10;0.10;;;13.90;99.90;;;;;;4979146;28;20119;-70
2023/08/28 06:10:27;;;;;;;0.00;0.00;;;14.00;99.90;;;;;;4960353;28;20491;-71
2023/08/28 06:12:53;;;;;;;0.10;0.10;;;14.00;99.90;;;;;;4932765;28;20040;-70
2023/08/28 06:15:19;;;;;;;0.00;0.00;;;14.10;99.90;;;;;;4912918;28;20052;-70
2023/08/28 06:17:49;;;;;;;0.10;0.10;;;14.10;99.90;;;;;;4930709;28;20404;-70
2023/08/28 06:20:15;;;;;;;0.10;0.10;;;14.10;99.90;;;;;;4948485;28;20070;-70
2023/08/28 06:22:42;;;;;;;0.20;0.20;;;14.20;99.90;;;;;;4934571;28;20535;-70
2023/08/28 06:25:09;;;;;;;0.00;0.00;;;14.20;99.90;;;;;;4938791;28;20099;-69
2023/08/28 06:27:34;;;;;;;0.00;0.00;;;14.20;99.90;;;;;;4944005;28;20079;-70
2023/08/28 06:30:00;;;;;;;0.10;0.10;;;14.30;99.90;;;;;;4928637;28;20080;-70
2023/08/28 06:32:25;;;;;;;0.05;0.05;;;14.40;99.90;;;;;;4920411;28;20563;-70
2023/08/28 06:34:51;;;;;;;0.35;0.35;;;14.40;99.90;;;;;;4920606;28;20583;-70
2023/08/28 06:37:17;;;;;;;0.00;0.00;;;14.60;99.90;;;;;;4918607;28;20427;-70
2023/08/28 06:39:42;;;;;;;0.00;0.00;;;14.60;99.90;;;;;;4917155;28;20127;-70
2023/08/28 06:42:08;;;;;;;0.00;0.00;;;14.70;99.90;;;;;;4932264;28;20125;-70
2023/08/28 06:44:33;;;;;;;0.00;0.00;;;14.70;99.90;;;;;;4919096;28;20052;-70
2023/08/28 06:46:59;;;;;;;0.08;0.08;;;14.80;99.90;;;;;;4927584;28;20036;-70
2023/08/28 06:49:25;;;;;;;0.00;0.00;;;14.90;99.90;;;;;;4935098;28;20044;-70
2023/08/28 06:51:50;;;;;;;0.00;0.00;;;14.90;99.90;;;;;;4908031;28;20060;-70
2023/08/28 06:54:16;;;;;;;0.65;0.60;;;15.00;99.90;;;;;;4937902;28;20046;-70
2023/08/28 06:56:41;;;;;;;0.08;0.08;;;15.00;99.90;;;;;;4941762;28;20420;-70
2023/08/28 06:59:07;;;;;;;0.00;0.00;;;15.10;99.90;;;;;;4924713;28;20048;-70
2023/08/28 07:01:33;;;;;;;0.00;0.00;;;15.20;99.90;;;;;;4945897;28;20563;-70
2023/08/28 07:03:58;;;;;;;0.00;0.00;;;15.30;99.90;;;;;;4911591;28;20047;-71
2023/08/28 07:06:24;;;;;;;0.00;0.00;;;15.30;99.90;;;;;;4945254;28;20103;-70
2023/08/28 07:08:49;;;;;;;0.00;0.00;;;15.40;99.90;;;;;;4921505;28;20041;-70
2023/08/28 07:11:15;;;;;;;0.00;0.00;;;15.50;99.90;;;;;;4911347;28;20079;-71
2023/08/28 07:13:41;;;;;;;0.00;0.00;;;15.50;99.90;;;;;;4971849;28;20475;-71
2023/08/28 07:16:06;;;;;;;0.10;0.10;;;15.60;99.90;;;;;;4939991;28;20071;-70
2023/08/28 07:18:32;;;;;;;0.10;0.10;;;15.70;99.90;;;;;;4932976;28;20055;-70
2023/08/28 07:20:58;;;;;;;0.00;0.00;;;15.70;99.90;;;;;;4959167;28;20459;-70
2023/08/28 07:23:25;;;;;;;0.00;0.00;;;15.80;99.90;;;;;;4954883;28;20125;-71
2023/08/28 07:25:51;;;;;;;0.00;0.00;;;15.80;99.90;;;;;;4920777;28;20045;-71
2023/08/28 07:28:17;;;;;;;0.10;0.10;;;15.90;99.90;;;;;;4959543;28;20051;-71
2023/08/28 07:30:43;;;;;;;0.10;0.10;;;15.90;99.90;;;;;;4959990;28;20044;-71
2023/08/28 07:33:09;;;;;;;0.00;0.00;;;16.00;99.90;;;;;;4946450;28;20114;-71
2023/08/28 07:35:35;;;;;;;1.35;0.50;;;16.00;99.90;;;;;;4927639;28;20091;-72
2023/08/28 07:38:07;;;;;;;0.00;0.00;;;16.10;99.90;;;;;;4937506;28;20085;-71
2023/08/28 07:40:33;;;;;;;0.00;0.00;;;16.20;99.90;;;;;;4914480;28;20964;-71
2023/08/28 07:42:59;;;;;;;0.10;0.10;;;16.20;99.90;;;;;;4926231;28;20078;-71
2023/08/28 07:45:25;;;;;;;0.00;0.00;;;16.30;99.90;;;;;;4950220;28;20508;-70
2023/08/28 07:47:51;;;;;;;0.00;0.00;;;16.40;99.90;;;;;;4924776;28;20045;-70
2023/08/28 07:50:17;;;;;;;0.05;0.05;;;16.40;99.90;;;;;;4952539;28;20052;-70
2023/08/28 07:52:42;;;;;;;0.10;0.10;;;16.40;99.90;;;;;;4913982;28;20078;-71
2023/08/28 07:55:09;;;;;;;0.00;0.00;;;16.50;99.90;;;;;;4969530;28;20132;-71
2023/08/28 07:57:34;;;;;;;0.00;0.00;;;16.50;99.90;;;;;;4951237;28;20502;-70
2023/08/28 08:00:06;;;;;;;0.65;0.22;;;16.60;99.90;;;;;;4926486;28;20116;-71
2023/08/28 08:02:32;;;;;;;2.40;1.45;;;16.70;99.90;;;;;;4964562;28;20119;-70
2023/08/28 08:04:58;;;;;;;0.00;0.00;;;16.80;99.90;;;;;;4944334;28;20079;-70
2023/08/28 08:07:23;;;;;;;0.30;0.30;;;16.80;99.90;;;;;;4939884;28;20379;-70
2023/08/28 08:09:49;;;;;;;0.00;0.00;;;16.80;99.90;;;;;;4974212;28;20482;-70
2023/08/28 08:12:14;;;;;;;0.00;0.00;;;16.80;99.90;;;;;;4920241;28;20050;-70
2023/08/28 08:14:40;;;;;;;0.25;0.25;;;16.70;99.90;;;;;;4953212;28;20034;-70
2023/08/28 08:17:06;;;;;;;0.25;0.25;;;16.70;99.90;;;;;;4961037;28;20041;-71
2023/08/28 08:19:31;;;;;;;0.00;0.00;;;16.80;99.90;;;;;;4915216;28;20052;-71
2023/08/28 08:21:58;;;;;;;0.10;0.10;;;16.90;99.90;;;;;;4911503;28;20078;-71
2023/08/28 08:24:23;;;;;;;0.00;0.00;;;17.00;99.90;;;;;;4933197;28;20057;-71
2023/08/28 08:26:49;;;;;;;0.00;0.00;;;17.20;99.90;;;;;;4961178;28;20051;-71
2023/08/28 08:29:15;;;;;;;0.00;0.00;;;17.20;99.90;;;;;;4962019;28;20037;-71
2023/08/28 08:31:40;;;;;;;0.00;0.00;;;17.30;99.90;;;;;;4925484;28;20040;-70
2023/08/28 08:34:06;;;;;;;0.00;0.00;;;17.30;99.90;;;;;;4947519;28;20155;-71
2023/08/28 08:36:32;;;;;;;0.00;0.00;;;17.30;99.90;;;;;;4958804;28;20535;-71
2023/08/28 08:38:58;;;;;;;0.00;0.00;;;17.20;99.90;;;;;;4910371;28;20153;-71
2023/08/28 08:41:24;;;;;;;0.00;0.00;;;17.20;99.90;;;;;;4924930;28;20052;-71
2023/08/28 08:43:49;;;;;;;0.00;0.00;;;17.20;99.90;;;;;;4986365;28;20034;-71
2023/08/28 08:46:17;;;;;;;0.00;0.00;;;17.40;99.90;;;;;;4908231;28;20123;-71
2023/08/28 08:48:44;;;;;;;0.00;0.00;;;17.50;99.90;;;;;;4908460;28;20088;-71
2023/08/28 08:51:12;;;;;;;0.03;0.03;;;17.60;99.90;;;;;;4906112;28;20045;-71
2023/08/28 08:53:45;;;;;;;0.05;0.05;;;17.70;99.90;;;;;;4945813;28;20501;-71
2023/08/28 08:56:15;;;;;;;0.00;0.00;;;17.80;99.90;;;;;;4931382;28;20538;-71
2023/08/28 08:58:42;;;;;;;0.00;0.00;;;17.90;99.90;;;;;;4919926;28;20700;-71
2023/08/28 09:01:09;;;;;;;0.00;0.00;;;17.90;99.90;;;;;;4939891;28;20404;-71
2023/08/28 09:03:38;;;;;;;0.00;0.00;;;18.00;99.90;;;;;;4957446;28;20053;-71
2023/08/28 09:06:06;;;;;;;0.00;0.00;;;18.20;99.90;;;;;;4938443;28;20055;-71
2023/08/28 09:08:34;;;;;;;0.00;0.00;;;18.40;99.90;;;;;;4918586;28;20041;-71
2023/08/28 09:11:00;;;;;;;0.00;0.00;;;18.60;99.90;;;;;;4956218;28;20127;-70
2023/08/28 09:13:26;;;;;;;0.00;0.00;;;18.60;99.90;;;;;;4959619;28;20037;-70
2023/08/28 09:15:52;;;;;;;0.00;0.00;;;18.50;99.90;;;;;;4950407;28;20830;-71
2023/08/28 09:18:18;;;;;;;0.00;0.00;;;18.90;99.90;;;;;;4947381;28;20048;-71
2023/08/28 09:20:44;;;;;;;0.10;0.10;;;19.40;99.90;;;;;;4955012;28;20073;-71
2023/08/28 09:23:10;;;;;;;0.00;0.00;;;19.70;99.90;;;;;;4930976;28;20049;-71
2023/08/28 09:25:37;;;;;;;0.00;0.00;;;20.30;99.90;;;;;;4921773;28;20058;-71
2023/08/28 09:28:05;;;;;;;0.10;0.10;;;20.90;99.90;;;;;;4981777;28;20538;-71
2023/08/28 09:30:38;;;;;;;0.00;0.00;;;21.70;99.90;;;;;;4922869;28;20115;-72
2023/08/28 09:33:07;;;;;;;0.00;0.00;;;22.00;99.90;;;;;;4920636;28;20517;-71
2023/08/28 09:35:38;;;;;;;0.00;0.00;;;22.40;99.90;;;;;;4949685;28;20080;-70
2023/08/28 09:38:03;;;;;;;0.00;0.00;;;22.70;99.90;;;;;;4949966;28;20040;-71
2023/08/28 09:40:37;;;;;;;0.43;0.43;;;23.00;99.90;;;;;;4924737;28;20052;-72
2023/08/28 09:43:18;;;;;;;0.00;0.00;;;23.00;99.90;;;;;;4962664;28;20033;-72
2023/08/28 09:45:45;;;;;;;0.00;0.00;;;23.00;99.90;;;;;;4927752;28;20048;-71
2023/08/28 09:48:11;;;;;;;0.20;0.10;;;23.20;99.90;;;;;;4919199;28;20042;-71
2023/08/28 09:50:41;;;;;;;0.43;0.10;;;23.40;99.90;;;;;;4912135;28;20052;-70
2023/08/28 09:53:12;;;;;;;0.00;0.00;;;22.80;99.90;;;;;;4929986;28;20129;-70
2023/08/28 09:55:50;;;;;;;0.00;0.00;;;21.90;99.90;;;;;;4931877;28;20057;-70
2023/08/28 09:58:15;;;;;;;0.00;0.00;;;21.20;99.90;;;;;;4961069;28;20060;-70
2023/08/28 10:00:42;;;;;;;0.00;0.00;;;20.80;99.90;;;;;;4952014;28;20044;-70
2023/08/28 10:03:09;;;;;;;0.00;0.00;;;21.00;99.90;;;;;;4954028;28;20059;-71
2023/08/28 10:05:43;;;;;;;0.00;0.00;;;21.60;99.90;;;;;;4955368;28;20518;-70
2023/08/28 10:08:10;;;;;;;0.00;0.00;;;22.00;99.90;;;;;;4989699;28;20424;-70
2023/08/28 10:10:38;;;;;;;0.00;0.00;;;21.70;99.90;;;;;;4942194;28;20056;-71
2023/08/28 10:13:05;;;;;;;0.00;0.00;;;22.00;99.90;;;;;;4910080;28;20037;-70
2023/08/28 10:15:45;;;;;;;0.00;0.00;;;22.30;99.90;;;;;;4919360;28;20044;-70
2023/08/28 10:18:20;;;;;;;0.00;0.00;;;22.40;99.90;;;;;;4942916;28;20076;-70
2023/08/28 10:20:47;;;;;;;0.00;0.00;;;22.60;99.90;;;;;;4950369;28;20094;-70
2023/08/28 10:23:14;;;;;;;0.00;0.00;;;22.80;99.90;;;;;;4965121;28;20054;-70
2023/08/28 10:25:41;;;;;;;0.00;0.00;;;23.10;99.90;;;;;;4966793;28;20039;-71
2023/08/28 10:28:08;;;;;;;0.00;0.00;;;23.00;99.90;;;;;;4952516;28;20055;-70
2023/08/28 10:30:37;;;;;;;0.10;0.10;;;23.00;99.90;;;;;;4936856;28;20067;-70
2023/08/28 10:33:05;;;;;;;0.20;0.20;;;23.10;99.90;;;;;;4908960;28;20047;-69
2023/08/28 10:35:31;;;;;;;0.00;0.00;;;22.50;99.90;;;;;;4988906;28;20046;-69
2023/08/28 10:37:58;;;;;;;0.45;0.38;;;21.70;99.90;;;;;;4910337;28;20046;-69
2023/08/28 10:40:23;;;;;;;0.00;0.00;;;21.20;99.90;;;;;;4912733;28;20106;-67
2023/08/28 10:42:53;;;;;;;0.00;0.00;;;20.80;99.90;;;;;;4934140;28;20048;-69
2023/08/28 10:45:18;;;;;;;0.00;0.00;;;20.50;99.90;;;;;;4966455;28;20405;-69
2023/08/28 10:47:50;;;;;;;0.08;0.08;;;20.20;99.90;;;;;;4953033;28;20048;-68
2023/08/28 10:50:16;;;;;;;0.00;0.00;;;20.00;99.90;;;;;;4920561;28;20041;-68
2023/08/28 10:52:41;;;;;;;0.00;0.00;;;19.90;99.90;;;;;;4927877;28;20039;-69
2023/08/28 10:55:09;;;;;;;0.00;0.00;;;19.80;99.90;;;;;;4957002;28;20492;-69
2023/08/28 10:57:39;;;;;;;0.00;0.00;;;19.70;99.90;;;;;;4927751;28;20055;-68
2023/08/28 11:00:20;;;;;;;0.00;0.00;;;19.60;99.90;;;;;;4920067;28;20401;-68
2023/08/28 11:03:09;;;;;;;0.00;0.00;;;19.60;99.90;;;;;;4921243;28;20055;-68
2023/08/28 11:05:38;;;;;;;0.00;0.00;;;19.70;99.90;;;;;;4918499;28;20474;-68
2023/08/28 11:08:06;;;;;;;0.00;0.00;;;19.80;99.90;;;;;;4909366;28;20430;-68
2023/08/28 11:10:33;;;;;;;0.00;0.00;;;19.70;99.90;;;;;;4919065;28;20585;-68
2023/08/28 11:13:07;;;;;;;0.00;0.00;;;19.60;99.90;;;;;;4922588;28;20045;-69
2023/08/28 11:15:41;;;;;;;0.00;0.00;;;19.70;99.90;;;;;;4916522;28;20063;-68
2023/08/28 11:18:18;;;;;;;0.00;0.00;;;20.40;99.90;;;;;;4910716;28;20531;-69
2023/08/28 11:20:53;;;;;;;0.13;0.13;;;20.90;99.90;;;;;;4905586;28;20051;-68
2023/08/28 11:23:23;;;;;;;0.00;0.00;;;21.20;99.90;;;;;;4901649;28;20076;-68
2023/08/28 11:25:50;;;;;;;0.00;0.00;;;21.60;99.90;;;;;;4919940;28;20173;-69
2023/08/28 11:28:29;;;;;;;0.00;0.00;;;21.70;99.90;;;;;;4916443;28;20051;-69
2023/08/28 11:31:04;;;;;;;0.35;0.35;;;21.30;99.90;;;;;;4910550;28;20396;-69
2023/08/28 11:33:56;;;;;;;0.00;0.00;;;21.00;99.90;;;;;;4926492;28;20424;-69
2023/08/28 11:36:22;;;;;;;0.00;0.00;;;21.30;99.90;;;;;;4913805;28;20059;-68
2023/08/28 11:38:49;;;;;;;0.00;0.00;;;21.30;99.90;;;;;;4919059;28;20044;-69
2023/08/28 11:41:14;;;;;;;0.00;0.00;;;21.70;99.90;;;;;;4916931;28;20048;-69
2023/08/28 11:43:42;;;;;;;0.30;0.30;;;21.80;99.90;;;;;;4910456;28;20055;-70
2023/08/28 11:46:09;;;;;;;0.20;0.20;;;21.80;99.90;;;;;;4923544;28;20475;-69
2023/08/28 11:48:37;;;;;;;0.00;0.00;;;22.00;99.90;;;;;;4920089;28;20044;-69
2023/08/28 11:51:04;;;;;;;0.00;0.00;;;21.80;99.90;;;;;;4918417;28;20072;-70
2023/08/28 11:53:40;;;;;;;0.00;0.00;;;21.60;99.90;;;;;;4934178;28;20033;-70
2023/08/28 11:56:08;;;;;;;0.00;0.00;;;21.50;99.90;;;;;;4932922;28;20469;-69
2023/08/28 11:58:35;;;;;;;0.30;0.30;;;21.30;99.90;;;;;;4916433;28;20052;-70
2023/08/28 12:01:13;;;;;;;0.00;0.00;;;21.10;99.90;;;;;;4947458;28;20687;-70
2023/08/28 12:03:42;;;;;;;0.00;0.00;;;21.00;99.90;;;;;;4936390;28;20056;-70
2023/08/28 12:06:09;;;;;;;0.00;0.00;;;20.90;99.90;;;;;;4942549;28;20108;-71
2023/08/28 12:08:42;;;;;;;0.00;0.00;;;20.80;99.90;;;;;;4928524;28;20064;-70
2023/08/28 12:11:09;;;;;;;;;;;20.80;99.90;;;;;;4938014;28;20574;-70
2023/08/28 12:13:35;;;;;;;0.00;0.00;;;21.10;99.90;;;;;;4958689;28;19921;-69
2023/08/28 12:16:15;;;;;;;0.00;0.00;;;21.80;99.90;;;;;;4962212;28;20050;-70
2023/08/28 12:18:52;;;;;;;0.00;0.00;;;22.20;99.90;;;;;;4907926;28;20048;-69
2023/08/28 12:21:20;;;;;;;0.00;0.00;;;22.40;99.90;;;;;;4954427;28;20128;-70
2023/08/28 12:23:48;;;;;;;0.00;0.00;;;22.20;99.90;;;;;;4928481;28;20117;-70
2023/08/28 12:26:16;;;;;;;0.00;0.00;;;21.90;99.90;;;;;;4926786;28;20051;-71
2023/08/28 12:28:42;;;;;;;0.00;0.00;;;21.90;99.90;;;;;;4930383;28;20119;-70
2023/08/28 12:31:08;;;;;;;0.00;0.00;;;21.70;99.90;;;;;;4910658;28;20115;-70
2023/08/28 12:33:41;;;;;;;0.00;0.00;;;21.50;99.90;;;;;;4924438;28;20542;-72
2023/08/28 12:36:07;;;;;;;0.00;0.00;;;21.50;99.90;;;;;;4960902;28;20188;-70
2023/08/28 12:38:44;;;;;;;0.20;0.20;;;21.40;99.90;;;;;;4916557;28;20048;-70
2023/08/28 12:41:10;;;;;;;0.00;0.00;;;21.20;99.90;;;;;;4924766;28;20099;-70
2023/08/28 12:43:36;;;;;;;0.00;0.00;;;21.10;99.90;;;;;;4920892;28;20044;-70
2023/08/28 12:46:02;;;;;;;0.00;0.00;;;21.00;99.90;;;;;;4945194;28;20046;-70
2023/08/28 12:48:27;;;;;;;0.00;0.00;;;20.80;99.90;;;;;;4927333;28;20048;-70